createdAt,value
2024-01-03T00:00:29.263Z,98923.00
2024-01-03T00:02:57.928Z,98928.91
2024-01-03T00:05:37.167Z,98932.28
2024-01-03T00:08:27.270Z,98919.63
2024-01-03T00:10:55.385Z,98921.41
2024-01-03T00:13:35.806Z,98912.94
2024-01-03T00:16:03.056Z,98926.50
2024-01-03T00:18:47.432Z,98921.56
2024-01-03T00:21:20.377Z,98926.69
2024-01-03T00:23:51.493Z,98920.66
2024-01-03T00:26:19.401Z,98918.09
2024-01-03T00:28:46.896Z,98920.66
2024-01-03T00:31:39.912Z,98912.16
2024-01-03T00:34:41.326Z,98916.25
2024-01-03T00:37:27.380Z,98899.22
2024-01-03T00:39:56.801Z,98898.47
2024-01-03T00:42:24.647Z,98903.66
2024-01-03T00:44:52.422Z,98895.13
2024-01-03T00:47:21.294Z,98900.13
2024-01-03T00:49:49.137Z,98903.56
2024-01-03T00:52:17.209Z,98895.97
2024-01-03T00:54:46.085Z,98895.97
2024-01-03T00:57:13.913Z,98897.69
2024-01-03T00:59:41.332Z,98894.28
2024-01-03T01:02:09.252Z,98892.63
2024-01-03T01:04:40.505Z,98887.50
2024-01-03T01:07:07.847Z,98890.78
2024-01-03T01:09:35.281Z,98891.63
2024-01-03T01:12:03.902Z,98889.09
2024-01-03T01:14:31.203Z,98895.03
2024-01-03T01:16:58.912Z,98890.78
2024-01-03T01:19:26.330Z,98892.53
2024-01-03T01:21:54.442Z,98906.13
2024-01-03T01:24:21.812Z,98899.50
2024-01-03T01:26:49.139Z,98906.19
2024-01-03T01:29:16.981Z,98904.56
2024-01-03T01:31:48.695Z,98908.69
2024-01-03T01:34:16.258Z,98913.06
2024-01-03T01:36:44.994Z,98911.50
2024-01-03T01:39:12.591Z,98923.34
2024-01-03T01:41:39.976Z,98923.28
2024-01-03T01:44:09.217Z,98923.19
2024-01-03T01:46:38.368Z,98924.72
2024-01-03T01:49:06.458Z,98922.13
2024-01-03T01:51:37.828Z,98924.66
2024-01-03T01:54:06.256Z,98919.69
2024-01-03T01:56:34.267Z,98919.75
2024-01-03T01:59:01.757Z,98916.19
2024-01-03T02:01:31.064Z,98908.41
2024-01-03T02:03:58.502Z,98911.75
2024-01-03T02:06:26.055Z,98910.97
2024-01-03T02:08:54.330Z,98914.53
2024-01-03T02:11:21.858Z,98907.75
2024-01-03T02:13:50.040Z,98910.34
2024-01-03T02:16:19.340Z,98917.88
2024-01-03T02:18:48.443Z,98910.25
2024-01-03T02:21:35.669Z,98907.78
2024-01-03T02:24:03.410Z,98909.59
2024-01-03T02:26:30.974Z,98921.38
2024-01-03T02:28:58.884Z,98918.00
2024-01-03T02:31:26.201Z,98921.41
2024-01-03T02:33:54.809Z,98914.63
2024-01-03T02:36:22.584Z,98911.22
2024-01-03T02:38:52.620Z,98925.72
2024-01-03T02:41:19.890Z,98923.34
2024-01-03T02:43:47.204Z,98930.19
2024-01-03T02:46:14.558Z,98925.94
2024-01-03T02:48:42.123Z,98929.47
2024-01-03T02:51:26.687Z,98925.28
2024-01-03T02:53:54.005Z,98910.03
2024-01-03T02:56:21.623Z,98918.41
2024-01-03T02:58:48.976Z,98929.59
2024-01-03T03:01:16.209Z,98925.44
2024-01-03T03:03:43.633Z,98919.50
2024-01-03T03:06:11.221Z,98922.84
2024-01-03T03:08:38.669Z,98916.00
2024-01-03T03:11:07.380Z,98918.53
2024-01-03T03:13:35.105Z,98917.81
2024-01-03T03:16:02.584Z,98922.06
2024-01-03T03:18:30.890Z,98917.81
2024-01-03T03:20:59.418Z,98919.53
2024-01-03T03:23:26.672Z,98917.91
2024-01-03T03:25:54.103Z,98927.19
2024-01-03T03:28:23.016Z,98928.00
2024-01-03T03:30:50.333Z,98928.09
2024-01-03T03:33:17.654Z,98939.06
2024-01-03T03:35:45.182Z,98931.69
2024-01-03T03:38:12.607Z,98947.00
2024-01-03T03:40:39.824Z,98945.28
2024-01-03T03:43:07.140Z,98944.38
2024-01-03T03:45:34.379Z,98942.63
2024-01-03T03:48:01.893Z,98941.88
2024-01-03T03:50:29.280Z,98950.44
2024-01-03T03:52:56.534Z,98947.09
2024-01-03T03:55:24.129Z,98943.69
2024-01-03T03:57:51.333Z,98946.22
2024-01-03T04:00:19.065Z,98937.72
2024-01-03T04:02:47.074Z,98938.56
2024-01-03T04:05:14.642Z,98940.34
2024-01-03T04:07:42.004Z,98946.31
2024-01-03T04:10:09.749Z,98944.69
2024-01-03T04:12:38.557Z,98937.84
2024-01-03T04:15:06.297Z,98942.88
2024-01-03T04:17:33.777Z,98947.91
2024-01-03T04:20:01.171Z,98952.13
2024-01-03T04:22:29.462Z,98954.69
2024-01-03T04:24:56.738Z,98953.84
2024-01-03T04:27:24.407Z,98952.09
2024-01-03T04:29:51.615Z,98961.41
2024-01-03T04:32:19.029Z,98964.84
2024-01-03T04:34:46.215Z,98962.25
2024-01-03T04:37:13.482Z,98959.66
2024-01-03T04:39:40.650Z,98960.56
2024-01-03T04:42:08.159Z,98957.22
2024-01-03T04:44:35.954Z,98955.56
2024-01-03T04:47:03.989Z,98955.47
2024-01-03T04:49:31.630Z,98963.13
2024-01-03T04:51:58.991Z,98958.84
2024-01-03T04:54:26.232Z,98964.00
2024-01-03T04:56:53.890Z,98958.91
2024-01-03T04:59:21.205Z,98963.94
2024-01-03T05:01:48.646Z,98964.78
2024-01-03T05:04:15.919Z,98960.59
2024-01-03T05:06:43.912Z,98966.75
2024-01-03T05:09:11.138Z,98959.19
2024-01-03T05:11:38.413Z,98960.06
2024-01-03T05:14:05.642Z,98964.94
2024-01-03T05:16:32.907Z,98967.50
2024-01-03T05:19:00.492Z,98967.50
2024-01-03T05:21:27.880Z,98967.59
2024-01-03T05:23:55.074Z,98960.00
2024-01-03T05:26:22.514Z,98961.81
2024-01-03T05:28:50.046Z,98971.97
2024-01-03T05:31:17.299Z,98962.66
2024-01-03T05:33:45.064Z,98971.19
2024-01-03T05:36:12.457Z,98962.13
2024-01-03T05:38:39.715Z,98973.91
2024-01-03T05:41:09.219Z,98969.78
2024-01-03T05:43:37.141Z,98965.59
2024-01-03T05:46:04.660Z,98967.38
2024-01-03T05:48:32.216Z,98967.47
2024-01-03T05:50:59.585Z,98979.31
2024-01-03T05:53:26.848Z,98975.09
2024-01-03T05:55:54.182Z,98969.13
2024-01-03T05:58:21.287Z,98970.91
2024-01-03T06:00:48.529Z,98969.19
2024-01-03T06:03:15.786Z,98951.41
2024-01-03T06:05:43.156Z,98959.06
2024-01-03T06:08:10.744Z,98967.53
2024-01-03T06:10:38.320Z,98969.28
2024-01-03T06:13:05.581Z,98972.72
2024-01-03T06:15:33.268Z,98968.44
2024-01-03T06:18:00.985Z,98968.47
2024-01-03T06:20:28.732Z,98968.41
2024-01-03T06:22:56.223Z,98953.13
2024-01-03T06:25:23.495Z,98963.09
2024-01-03T06:27:50.831Z,98975.78
2024-01-03T06:30:18.150Z,98971.50
2024-01-03T06:32:45.626Z,98976.47
2024-01-03T06:35:15.734Z,98977.34
2024-01-03T06:37:43.477Z,98978.88
2024-01-03T06:40:11.158Z,98983.03
2024-01-03T06:42:40.818Z,98987.03
2024-01-03T06:45:08.790Z,98978.50
2024-01-03T06:47:36.460Z,98975.09
2024-01-03T06:50:03.845Z,98975.75
2024-01-03T06:52:32.545Z,98979.09
2024-01-03T06:54:59.941Z,98990.09
2024-01-03T06:57:27.751Z,98986.38
2024-01-03T06:59:55.094Z,98980.16
2024-01-03T07:02:22.517Z,98974.09
2024-01-03T07:04:49.920Z,98975.47
2024-01-03T07:07:18.454Z,98973.84
2024-01-03T07:09:47.392Z,98965.97
2024-01-03T07:12:15.854Z,98964.13
2024-01-03T07:14:43.366Z,98970.31
2024-01-03T07:17:15.765Z,98964.34
2024-01-03T07:19:43.327Z,98955.78
2024-01-03T07:22:12.531Z,98966.75
2024-01-03T07:24:40.419Z,98969.84
2024-01-03T07:27:08.785Z,98975.66
2024-01-03T07:29:36.402Z,98971.16
2024-01-03T07:32:03.863Z,98971.75
2024-01-03T07:34:34.626Z,98974.03
2024-01-03T07:37:06.090Z,98961.50
2024-01-03T07:39:37.324Z,98953.97
2024-01-03T07:42:08.964Z,98946.16
2024-01-03T07:44:43.205Z,98970.53
2024-01-03T07:47:12.015Z,98953.63
2024-01-03T07:49:40.441Z,98957.72
2024-01-03T07:52:08.155Z,98961.91
2024-01-03T07:54:35.728Z,98949.97
2024-01-03T07:57:09.346Z,98961.03
2024-01-03T07:59:37.768Z,98957.56
2024-01-03T08:02:05.422Z,98956.44
2024-01-03T08:04:33.055Z,98962.16
2024-01-03T08:07:00.482Z,98955.97
2024-01-03T08:09:28.885Z,98959.22
2024-01-03T08:11:56.701Z,98958.16
2024-01-03T08:14:30.918Z,98955.47
2024-01-03T08:17:00.112Z,98950.22
2024-01-03T08:19:27.833Z,98963.00
2024-01-03T08:21:59.528Z,98971.47
2024-01-03T08:24:29.365Z,98955.84
2024-01-03T08:26:59.349Z,98944.09
2024-01-03T08:29:31.981Z,98957.50
2024-01-03T08:32:03.657Z,98950.91
2024-01-03T08:34:33.042Z,98950.00
2024-01-03T08:37:00.657Z,98946.53
2024-01-03T08:39:29.884Z,98954.81
2024-01-03T08:41:57.359Z,98948.66
2024-01-03T08:44:25.599Z,98948.38
2024-01-03T08:46:53.106Z,98952.41
2024-01-03T08:49:26.113Z,98948.78
2024-01-03T08:51:53.726Z,98947.88
2024-01-03T08:54:25.987Z,98956.25
2024-01-03T08:56:53.519Z,98938.16
2024-01-03T08:59:29.270Z,98944.66
2024-01-03T09:02:02.242Z,98936.34
2024-01-03T09:04:30.098Z,98940.34
2024-01-03T09:06:59.087Z,98942.69
2024-01-03T09:09:33.070Z,98939.69
2024-01-03T09:12:07.668Z,98918.69
2024-01-03T09:14:45.046Z,98934.81
2024-01-03T09:20:14.060Z,98924.13
2024-01-03T09:22:47.819Z,98936.97
2024-01-03T09:25:22.973Z,98913.88
2024-01-03T09:28:12.614Z,98926.72
2024-01-03T09:30:45.680Z,98928.28
2024-01-03T09:33:13.870Z,98924.84
2024-01-03T09:35:41.640Z,98925.28
2024-01-03T09:38:09.229Z,98917.38
2024-01-03T09:40:39.199Z,98925.84
2024-01-03T09:43:14.670Z,98915.63
2024-01-03T09:45:43.060Z,98914.97
2024-01-03T09:48:11.945Z,98914.06
2024-01-03T09:50:41.200Z,98910.94
2024-01-03T09:53:10.985Z,98903.66
2024-01-03T09:55:39.612Z,98899.63
2024-01-03T09:58:07.111Z,98906.09
2024-01-03T10:00:35.683Z,98907.97
2024-01-03T10:03:04.084Z,98907.25
2024-01-03T10:05:37.191Z,98910.91
2024-01-03T10:08:28.063Z,98910.00
2024-01-03T10:11:02.061Z,98914.19
2024-01-03T10:13:32.323Z,98914.81
2024-01-03T10:16:05.730Z,98904.84
2024-01-03T10:18:34.073Z,98916.06
2024-01-03T10:21:18.267Z,98907.81
2024-01-03T10:26:50.414Z,98910.25
2024-01-03T10:29:28.402Z,98903.59
2024-01-03T10:31:58.226Z,98902.94
2024-01-03T10:34:27.712Z,98896.72
2024-01-03T10:36:57.579Z,98876.28
2024-01-03T10:39:50.812Z,98885.31
2024-01-03T10:42:21.770Z,98875.19
2024-01-03T10:44:51.291Z,98877.09
2024-01-03T10:50:29.795Z,98894.88
2024-01-03T10:52:59.171Z,98886.25
2024-01-03T10:58:22.528Z,98883.78
2024-01-03T11:01:26.540Z,98881.44
2024-01-03T11:04:09.434Z,98873.59
2024-01-03T11:06:59.803Z,98873.75
2024-01-03T11:09:28.576Z,98878.19
2024-01-03T11:14:53.728Z,98857.28
2024-01-03T11:20:23.428Z,98866.78
2024-01-03T11:23:06.668Z,98865.72
2024-01-03T11:25:52.102Z,98875.88
2024-01-03T11:28:37.716Z,98877.88
2024-01-03T11:31:08.636Z,98873.31
2024-01-03T11:34:00.674Z,98877.53
2024-01-03T11:36:46.667Z,98874.72
2024-01-03T11:42:42.245Z,98860.22
2024-01-03T11:45:15.803Z,98856.97
2024-01-03T11:47:56.600Z,98845.75
2024-01-03T11:50:51.054Z,98864.75
2024-01-03T11:56:07.764Z,98852.94
2024-01-03T11:58:42.687Z,98834.63
2024-01-03T12:01:19.652Z,98853.28
2024-01-03T12:03:58.365Z,98873.94
2024-01-03T12:06:27.067Z,98856.91
2024-01-03T12:08:56.431Z,98855.59
2024-01-03T12:11:33.015Z,98857.69
2024-01-03T12:14:00.996Z,98860.34
2024-01-03T12:16:31.735Z,98851.06
2024-01-03T12:18:59.564Z,98855.69
2024-01-03T12:21:27.236Z,98861.13
2024-01-03T12:24:04.353Z,98865.50
2024-01-03T12:26:34.801Z,98851.44
2024-01-03T12:29:04.101Z,98875.94
2024-01-03T12:31:31.781Z,98865.56
2024-01-03T12:34:10.505Z,98864.56
2024-01-03T12:36:38.838Z,98847.88
2024-01-03T12:41:53.615Z,98847.66
2024-01-03T12:44:21.557Z,98863.09
2024-01-03T12:46:52.424Z,98843.69
2024-01-03T12:49:20.671Z,98866.66
2024-01-03T12:51:48.017Z,98849.59
2024-01-03T12:59:46.775Z,98866.38
2024-01-03T13:02:16.072Z,98862.28
2024-01-03T13:07:35.059Z,98881.44
2024-01-03T13:10:10.662Z,98863.59
2024-01-03T13:12:43.074Z,98875.00
2024-01-03T13:15:18.262Z,98881.03
2024-01-03T13:17:48.238Z,98879.44
2024-01-03T13:20:17.385Z,98877.69
2024-01-03T13:22:56.738Z,98874.47
2024-01-03T13:25:28.682Z,98878.72
2024-01-03T13:28:02.139Z,98882.09
2024-01-03T13:30:36.511Z,98865.25
2024-01-03T13:33:09.074Z,98877.94
2024-01-03T13:35:37.301Z,98875.63
2024-01-03T13:38:05.074Z,98869.84
2024-01-03T13:40:33.809Z,98877.56
2024-01-03T13:43:01.348Z,98882.72
2024-01-03T13:45:31.381Z,98871.06
2024-01-03T13:48:02.373Z,98871.91
2024-01-03T13:50:35.283Z,98884.69
2024-01-03T13:53:14.923Z,98867.66
2024-01-03T13:55:48.097Z,98842.47
2024-01-03T13:58:19.297Z,98860.38
2024-01-03T14:00:48.527Z,98862.47
2024-01-03T14:03:18.277Z,98859.66
2024-01-03T14:05:46.051Z,98851.28
2024-01-03T14:08:13.853Z,98860.63
2024-01-03T14:10:44.954Z,98868.03
2024-01-03T14:13:12.602Z,98860.69
2024-01-03T14:15:40.121Z,98859.81
2024-01-03T14:18:08.739Z,98867.63
2024-01-03T14:20:38.062Z,98864.16
2024-01-03T14:23:06.058Z,98838.94
2024-01-03T14:25:33.872Z,98866.72
2024-01-03T14:28:05.277Z,98851.41
2024-01-03T14:30:32.521Z,98851.66
2024-01-03T14:32:59.966Z,98862.50
2024-01-03T14:35:28.525Z,98854.19
2024-01-03T14:38:04.260Z,98856.50
2024-01-03T14:40:31.754Z,98856.41
2024-01-03T14:43:04.902Z,98862.31
2024-01-03T14:45:33.797Z,98860.75
2024-01-03T14:48:01.226Z,98854.34
2024-01-03T14:50:30.421Z,98856.28
2024-01-03T14:52:57.701Z,98828.34
2024-01-03T14:58:09.738Z,98867.94
2024-01-03T15:00:41.147Z,98865.56
2024-01-03T15:03:11.148Z,98849.78
2024-01-03T15:05:43.549Z,98862.28
2024-01-03T15:08:15.970Z,98844.69
2024-01-03T15:10:48.124Z,98858.00
2024-01-03T15:13:16.340Z,98859.88
2024-01-03T15:15:49.484Z,98847.16
2024-01-03T15:18:17.430Z,98847.16
2024-01-03T15:20:44.898Z,98853.31
2024-01-03T15:23:12.851Z,98843.78
2024-01-03T15:25:45.819Z,98825.31
2024-01-03T15:28:14.484Z,98827.06
2024-01-03T15:30:43.540Z,98795.19
2024-01-03T15:33:14.112Z,98799.47
2024-01-03T15:35:42.501Z,98815.63
2024-01-03T15:38:10.095Z,98825.59
2024-01-03T15:40:37.264Z,98822.97
2024-01-03T15:43:04.688Z,98827.31
2024-01-03T15:45:37.133Z,98822.28
2024-01-03T15:48:04.827Z,98819.84
2024-01-03T15:50:32.179Z,98826.75
2024-01-03T15:53:00.057Z,98823.38
2024-01-03T15:55:27.469Z,98816.69
2024-01-03T15:57:55.028Z,98810.59
2024-01-03T16:00:22.446Z,98806.25
2024-01-03T16:02:50.149Z,98808.09
2024-01-03T16:05:17.508Z,98815.69
2024-01-03T16:07:46.807Z,98801.34
2024-01-03T16:10:20.230Z,98809.44
2024-01-03T16:12:47.555Z,98826.28
2024-01-03T16:15:42.967Z,98788.09
2024-01-03T16:18:12.687Z,98799.13
2024-01-03T16:20:40.213Z,98815.66
2024-01-03T16:23:07.980Z,98803.00
2024-01-03T16:25:40.432Z,98790.66
2024-01-03T16:28:09.285Z,98806.13
2024-01-03T16:30:36.764Z,98775.91
2024-01-03T16:33:04.384Z,98782.72
2024-01-03T16:35:31.744Z,98786.09
2024-01-03T16:37:59.221Z,98800.34
2024-01-03T16:40:26.516Z,98805.34
2024-01-03T16:42:53.884Z,98797.16
2024-01-03T16:45:24.332Z,98781.31
2024-01-03T16:47:52.051Z,98802.41
2024-01-03T16:50:22.634Z,98785.63
2024-01-03T16:53:03.021Z,98792.63
2024-01-03T16:55:43.392Z,98782.81
2024-01-03T16:58:15.492Z,98794.94
2024-01-03T17:00:58.711Z,98794.84
2024-01-03T17:03:36.235Z,98785.66
2024-01-03T17:06:04.511Z,98789.88
2024-01-03T17:08:31.773Z,98798.53
2024-01-03T17:10:59.062Z,98784.16
2024-01-03T17:13:28.696Z,98789.34
2024-01-03T17:15:56.115Z,98791.19
2024-01-03T17:18:23.616Z,98779.81
2024-01-03T17:20:50.993Z,98778.06
2024-01-03T17:23:18.323Z,98801.78
2024-01-03T17:25:45.918Z,98789.84
2024-01-03T17:28:13.189Z,98789.22
2024-01-03T17:30:43.396Z,98770.63
2024-01-03T17:33:11.190Z,98764.31
2024-01-03T17:35:44.733Z,98753.97
2024-01-03T17:38:13.019Z,98774.41
2024-01-03T17:40:40.886Z,98808.22
2024-01-03T17:43:08.374Z,98792.09
2024-01-03T17:45:35.891Z,98792.97
2024-01-03T17:48:03.296Z,98780.38
2024-01-03T17:50:30.620Z,98799.63
2024-01-03T17:52:57.952Z,98773.69
2024-01-03T17:55:25.161Z,98792.09
2024-01-03T17:57:52.506Z,98790.38
2024-01-03T18:00:20.342Z,98777.75
2024-01-03T18:02:50.061Z,98780.44
2024-01-03T18:05:18.300Z,98783.28
2024-01-03T18:07:49.775Z,98778.88
2024-01-03T18:10:17.398Z,98789.94
2024-01-03T18:12:45.594Z,98769.25
2024-01-03T18:15:13.500Z,98796.22
2024-01-03T18:17:43.069Z,98780.16
2024-01-03T18:20:13.566Z,98784.34
2024-01-03T18:22:49.179Z,98793.84
2024-01-03T18:25:20.618Z,98785.47
2024-01-03T18:27:48.158Z,98764.78
2024-01-03T18:30:19.489Z,98787.28
2024-01-03T18:32:56.787Z,98794.13
2024-01-03T18:35:24.497Z,98783.97
2024-01-03T18:37:52.014Z,98781.59
2024-01-03T18:40:19.990Z,98787.50
2024-01-03T18:42:47.449Z,98787.53
2024-01-03T18:45:14.893Z,98771.94
2024-01-03T18:47:43.338Z,98779.25
2024-01-03T18:50:11.136Z,98755.81
2024-01-03T18:52:38.562Z,98770.28
2024-01-03T18:55:06.652Z,98790.50
2024-01-03T18:57:34.670Z,98780.56
2024-01-03T19:00:07.258Z,98791.34
2024-01-03T19:02:37.047Z,98774.81
2024-01-03T19:05:06.597Z,98802.63
2024-01-03T19:07:34.041Z,98776.44
2024-01-03T19:10:04.029Z,98783.19
2024-01-03T19:12:35.190Z,98753.69
2024-01-03T19:15:02.735Z,98780.59
2024-01-03T19:17:35.238Z,98771.38
2024-01-03T19:20:05.779Z,98767.31
2024-01-03T19:22:37.560Z,98787.53
2024-01-03T19:25:08.247Z,98768.38
2024-01-03T19:27:37.957Z,98779.16
2024-01-03T19:30:11.984Z,98772.56
2024-01-03T19:33:02.791Z,98775.84
2024-01-03T19:35:30.757Z,98759.81
2024-01-03T19:38:03.540Z,98748.03
2024-01-03T19:40:30.919Z,98768.22
2024-01-03T19:42:58.505Z,98749.81
2024-01-03T19:45:35.460Z,98762.44
2024-01-03T19:48:10.827Z,98761.56
2024-01-03T19:50:38.554Z,98713.75
2024-01-03T19:53:15.642Z,98727.94
2024-01-03T19:55:45.816Z,98751.50
2024-01-03T19:58:13.155Z,98760.81
2024-01-03T20:00:47.682Z,98749.88
2024-01-03T20:03:15.212Z,98726.50
2024-01-03T20:05:42.982Z,98737.41
2024-01-03T20:08:10.639Z,98744.31
2024-01-03T20:10:38.236Z,98745.19
2024-01-03T20:13:06.002Z,98733.44
2024-01-03T20:15:33.359Z,98745.28
2024-01-03T20:18:00.690Z,98752.81
2024-01-03T20:20:30.818Z,98718.47
2024-01-03T20:23:01.175Z,98742.00
2024-01-03T20:25:28.881Z,98763.94
2024-01-03T20:27:57.116Z,98744.81
2024-01-03T20:30:27.273Z,98748.00
2024-01-03T20:33:04.722Z,98732.97
2024-01-03T20:35:33.860Z,98723.84
2024-01-03T20:38:01.257Z,98719.66
2024-01-03T20:40:31.768Z,98738.09
2024-01-03T20:43:01.576Z,98740.56
2024-01-03T20:45:38.959Z,98744.03
2024-01-03T20:48:08.498Z,98739.84
2024-01-03T20:50:37.220Z,98722.88
2024-01-03T20:53:04.652Z,98708.72
2024-01-03T20:55:31.986Z,98736.28
2024-01-03T20:57:59.543Z,98738.84
2024-01-03T21:00:26.826Z,98705.28
2024-01-03T21:02:54.495Z,98717.09
2024-01-03T21:05:21.937Z,98740.50
2024-01-03T21:07:49.326Z,98732.91
2024-01-03T21:10:19.318Z,98729.53
2024-01-03T21:12:46.963Z,98740.34
2024-01-03T21:15:14.486Z,98741.00
2024-01-03T21:17:44.139Z,98739.06
2024-01-03T21:20:11.709Z,98735.47
2024-01-03T21:22:40.243Z,98737.81
2024-01-03T21:25:08.321Z,98732.63
2024-01-03T21:27:46.443Z,98719.88
2024-01-03T21:30:19.543Z,98727.22
2024-01-03T21:32:47.483Z,98713.72
2024-01-03T21:35:17.717Z,98691.94
2024-01-03T21:37:48.227Z,98738.13
2024-01-03T21:40:18.179Z,98731.41
2024-01-03T21:42:48.165Z,98703.59
2024-01-03T21:45:19.838Z,98726.97
2024-01-03T21:47:47.393Z,98718.47
2024-01-03T21:50:16.129Z,98713.53
2024-01-03T21:52:50.380Z,98710.16
2024-01-03T21:55:17.759Z,98721.09
2024-01-03T21:57:45.939Z,98695.88
2024-01-03T22:00:15.341Z,98713.72
2024-01-03T22:02:49.664Z,98715.47
2024-01-03T22:05:25.387Z,98728.09
2024-01-03T22:07:54.902Z,98708.03
2024-01-03T22:10:22.239Z,98716.53
2024-01-03T22:12:52.853Z,98719.66
2024-01-03T22:15:20.625Z,98698.53
2024-01-03T22:17:48.186Z,98710.34
2024-01-03T22:20:16.702Z,98717.97
2024-01-03T22:22:46.523Z,98723.97
2024-01-03T22:25:14.752Z,98722.19
2024-01-03T22:27:41.958Z,98718.75
2024-01-03T22:30:09.619Z,98716.09
2024-01-03T22:32:37.075Z,98711.81
2024-01-03T22:35:04.699Z,98712.66
2024-01-03T22:37:41.417Z,98710.06
2024-01-03T22:40:09.712Z,98707.47
2024-01-03T22:42:39.692Z,98696.44
2024-01-03T22:45:09.927Z,98692.00
2024-01-03T22:47:37.393Z,98686.22
2024-01-03T22:50:08.511Z,98693.69
2024-01-03T22:52:38.980Z,98689.44
2024-01-03T22:55:09.082Z,98691.03
2024-01-03T22:57:37.214Z,98699.41
2024-01-03T23:00:25.888Z,98696.19
2024-01-03T23:02:54.897Z,98676.03
2024-01-03T23:05:27.613Z,98684.19
2024-01-03T23:07:58.221Z,98684.97
2024-01-03T23:10:25.602Z,98690.84
2024-01-03T23:15:45.913Z,98686.59
2024-01-03T23:18:13.344Z,98685.63
2024-01-03T23:20:40.996Z,98683.91
2024-01-03T23:23:10.968Z,98688.28
2024-01-03T23:25:39.022Z,98689.28
2024-01-03T23:28:08.913Z,98686.00
2024-01-03T23:30:36.995Z,98682.63
2024-01-03T23:33:04.443Z,98671.63
2024-01-03T23:35:31.851Z,98663.69
2024-01-03T23:38:01.514Z,98669.69
2024-01-03T23:40:28.571Z,98668.22
2024-01-03T23:42:55.772Z,98655.69
2024-01-03T23:45:27.612Z,98660.94
2024-01-03T23:47:55.161Z,98650.13
2024-01-03T23:50:24.958Z,98652.75
2024-01-03T23:52:57.989Z,98647.72
2024-01-03T23:55:25.260Z,98644.28
2024-01-03T23:57:52.822Z,98640.84
